sensor_id;sensor_type;location;lat;lon;timestamp;P1;durP1;ratioP1;P2;durP2;ratioP2
45232;SDS011;30969;51.052;17.056;2023-01-13T00:04:49;3.88;;;2.13;;
45232;SDS011;30969;51.052;17.056;2023-01-13T00:09:52;3.28;;;2.00;;
45232;SDS011;30969;51.052;17.056;2023-01-13T00:14:56;4.32;;;2.10;;
45232;SDS011;30969;51.052;17.056;2023-01-13T00:20:01;3.45;;;2.30;;
45232;SDS011;30969;51.052;17.056;2023-01-13T00:25:06;3.85;;;1.73;;
45232;SDS011;30969;51.052;17.056;2023-01-13T00:30:10;2.90;;;1.63;;
45232;SDS011;30969;51.052;17.056;2023-01-13T00:35:16;3.85;;;1.83;;
45232;SDS011;30969;51.052;17.056;2023-01-13T00:40:19;2.20;;;1.48;;
45232;SDS011;30969;51.052;17.056;2023-01-13T00:45:23;1.92;;;1.27;;
45232;SDS011;30969;51.052;17.056;2023-01-13T00:50:27;2.47;;;1.50;;
45232;SDS011;30969;51.052;17.056;2023-01-13T00:55:31;1.85;;;1.30;;
45232;SDS011;30969;51.052;17.056;2023-01-13T01:00:35;2.22;;;1.27;;
45232;SDS011;30969;51.052;17.056;2023-01-13T01:05:40;2.22;;;1.35;;
45232;SDS011;30969;51.052;17.056;2023-01-13T01:10:44;4.63;;;1.77;;
45232;SDS011;30969;51.052;17.056;2023-01-13T01:15:48;2.42;;;1.38;;
45232;SDS011;30969;51.052;17.056;2023-01-13T01:20:52;5.15;;;1.52;;
45232;SDS011;30969;51.052;17.056;2023-01-13T01:25:58;1.52;;;1.20;;
45232;SDS011;30969;51.052;17.056;2023-01-13T01:31:04;2.25;;;1.38;;
45232;SDS011;30969;51.052;17.056;2023-01-13T01:36:10;3.65;;;1.35;;
45232;SDS011;30969;51.052;17.056;2023-01-13T01:41:15;2.55;;;1.38;;
45232;SDS011;30969;51.052;17.056;2023-01-13T01:46:21;3.55;;;2.20;;
45232;SDS011;30969;51.052;17.056;2023-01-13T01:51:25;2.92;;;1.50;;
45232;SDS011;30969;51.052;17.056;2023-01-13T01:56:32;1.67;;;1.00;;
45232;SDS011;30969;51.052;17.056;2023-01-13T02:01:38;5.40;;;1.73;;
45232;SDS011;30969;51.052;17.056;2023-01-13T02:06:44;3.58;;;1.27;;
45232;SDS011;30969;51.052;17.056;2023-01-13T02:11:49;2.17;;;1.45;;
45232;SDS011;30969;51.052;17.056;2023-01-13T02:17:14;3.55;;;1.55;;
45232;SDS011;30969;51.052;17.056;2023-01-13T02:22:34;2.03;;;1.15;;
45232;SDS011;30969;51.052;17.056;2023-01-13T02:27:56;2.50;;;1.40;;
45232;SDS011;30969;51.052;17.056;2023-01-13T02:33:12;2.53;;;1.38;;
45232;SDS011;30969;51.052;17.056;2023-01-13T02:38:28;2.03;;;1.10;;
45232;SDS011;30969;51.052;17.056;2023-01-13T02:43:37;3.72;;;1.55;;
45232;SDS011;30969;51.052;17.056;2023-01-13T02:49:02;5.35;;;1.42;;
45232;SDS011;30969;51.052;17.056;2023-01-13T02:54:09;3.60;;;1.10;;
45232;SDS011;30969;51.052;17.056;2023-01-13T02:59:16;1.83;;;0.80;;
45232;SDS011;30969;51.052;17.056;2023-01-13T03:09:51;2.38;;;1.50;;
45232;SDS011;30969;51.052;17.056;2023-01-13T03:15:02;4.28;;;1.38;;
45232;SDS011;30969;51.052;17.056;2023-01-13T03:20:14;3.10;;;1.45;;
45232;SDS011;30969;51.052;17.056;2023-01-13T03:25:23;2.22;;;1.00;;
45232;SDS011;30969;51.052;17.056;2023-01-13T03:30:31;5.90;;;1.10;;
45232;SDS011;30969;51.052;17.056;2023-01-13T03:35:42;1.73;;;1.00;;
45232;SDS011;30969;51.052;17.056;2023-01-13T03:40:49;3.20;;;1.17;;
45232;SDS011;30969;51.052;17.056;2023-01-13T03:45:56;3.38;;;1.17;;
45232;SDS011;30969;51.052;17.056;2023-01-13T03:51:05;4.32;;;0.90;;
45232;SDS011;30969;51.052;17.056;2023-01-13T03:56:13;4.32;;;1.08;;
45232;SDS011;30969;51.052;17.056;2023-01-13T04:01:20;3.10;;;0.98;;
45232;SDS011;30969;51.052;17.056;2023-01-13T04:06:30;2.47;;;1.08;;
45232;SDS011;30969;51.052;17.056;2023-01-13T04:11:41;2.10;;;1.00;;
45232;SDS011;30969;51.052;17.056;2023-01-13T04:16:48;2.60;;;0.95;;
45232;SDS011;30969;51.052;17.056;2023-01-13T04:21:54;2.35;;;0.93;;
45232;SDS011;30969;51.052;17.056;2023-01-13T04:26:58;3.38;;;1.30;;
45232;SDS011;30969;51.052;17.056;2023-01-13T04:32:01;4.95;;;1.42;;
45232;SDS011;30969;51.052;17.056;2023-01-13T04:37:06;2.08;;;1.02;;
45232;SDS011;30969;51.052;17.056;2023-01-13T04:42:09;1.70;;;0.93;;
45232;SDS011;30969;51.052;17.056;2023-01-13T04:47:13;2.17;;;1.60;;
45232;SDS011;30969;51.052;17.056;2023-01-13T04:52:18;3.13;;;1.15;;
45232;SDS011;30969;51.052;17.056;2023-01-13T04:57:21;2.55;;;1.20;;
45232;SDS011;30969;51.052;17.056;2023-01-13T05:02:25;2.95;;;1.63;;
45232;SDS011;30969;51.052;17.056;2023-01-13T05:07:30;3.35;;;1.50;;
45232;SDS011;30969;51.052;17.056;2023-01-13T05:12:33;2.70;;;1.70;;
45232;SDS011;30969;51.052;17.056;2023-01-13T05:17:54;4.00;;;1.30;;
45232;SDS011;30969;51.052;17.056;2023-01-13T05:22:59;2.13;;;1.05;;
45232;SDS011;30969;51.052;17.056;2023-01-13T05:28:20;2.83;;;1.13;;
45232;SDS011;30969;51.052;17.056;2023-01-13T05:33:23;2.78;;;1.30;;
45232;SDS011;30969;51.052;17.056;2023-01-13T05:38:28;1.85;;;1.13;;
45232;SDS011;30969;51.052;17.056;2023-01-13T05:43:32;3.00;;;1.40;;
45232;SDS011;30969;51.052;17.056;2023-01-13T05:48:36;3.10;;;1.13;;
45232;SDS011;30969;51.052;17.056;2023-01-13T05:53:42;3.70;;;1.90;;
45232;SDS011;30969;51.052;17.056;2023-01-13T05:58:46;6.15;;;2.45;;
45232;SDS011;30969;51.052;17.056;2023-01-13T06:03:49;5.13;;;2.17;;
45232;SDS011;30969;51.052;17.056;2023-01-13T06:08:54;4.80;;;1.83;;
45232;SDS011;30969;51.052;17.056;2023-01-13T06:13:58;4.25;;;1.63;;
45232;SDS011;30969;51.052;17.056;2023-01-13T06:19:01;5.10;;;2.05;;
45232;SDS011;30969;51.052;17.056;2023-01-13T06:24:11;3.10;;;1.55;;
45232;SDS011;30969;51.052;17.056;2023-01-13T06:29:14;3.47;;;1.38;;
45232;SDS011;30969;51.052;17.056;2023-01-13T06:34:18;3.63;;;1.35;;
45232;SDS011;30969;51.052;17.056;2023-01-13T06:39:23;3.63;;;1.55;;
45232;SDS011;30969;51.052;17.056;2023-01-13T06:44:31;3.15;;;1.27;;
45232;SDS011;30969;51.052;17.056;2023-01-13T06:49:35;1.67;;;1.00;;
45232;SDS011;30969;51.052;17.056;2023-01-13T06:54:39;5.22;;;1.25;;
45232;SDS011;30969;51.052;17.056;2023-01-13T06:59:43;2.70;;;1.20;;
45232;SDS011;30969;51.052;17.056;2023-01-13T07:04:47;1.63;;;0.77;;
45232;SDS011;30969;51.052;17.056;2023-01-13T07:09:52;1.50;;;0.95;;
45232;SDS011;30969;51.052;17.056;2023-01-13T07:14:55;1.42;;;0.73;;
45232;SDS011;30969;51.052;17.056;2023-01-13T07:20:12;1.45;;;0.75;;
45232;SDS011;30969;51.052;17.056;2023-01-13T07:25:17;2.20;;;0.70;;
45232;SDS011;30969;51.052;17.056;2023-01-13T07:30:21;1.60;;;0.77;;
45232;SDS011;30969;51.052;17.056;2023-01-13T07:35:24;5.47;;;1.05;;
45232;SDS011;30969;51.052;17.056;2023-01-13T07:40:29;2.75;;;0.80;;
45232;SDS011;30969;51.052;17.056;2023-01-13T07:45:33;2.28;;;0.80;;
45232;SDS011;30969;51.052;17.056;2023-01-13T07:50:36;3.30;;;0.80;;
45232;SDS011;30969;51.052;17.056;2023-01-13T07:55:41;2.70;;;1.00;;
45232;SDS011;30969;51.052;17.056;2023-01-13T08:00:45;2.45;;;1.23;;
45232;SDS011;30969;51.052;17.056;2023-01-13T08:05:49;2.35;;;0.90;;
45232;SDS011;30969;51.052;17.056;2023-01-13T08:10:57;3.40;;;1.30;;
45232;SDS011;30969;51.052;17.056;2023-01-13T08:16:01;1.52;;;1.10;;
45232;SDS011;30969;51.052;17.056;2023-01-13T08:21:06;4.55;;;1.30;;
45232;SDS011;30969;51.052;17.056;2023-01-13T08:26:13;4.22;;;1.92;;
45232;SDS011;30969;51.052;17.056;2023-01-13T08:31:18;2.58;;;1.40;;
45232;SDS011;30969;51.052;17.056;2023-01-13T08:36:21;2.88;;;1.50;;
45232;SDS011;30969;51.052;17.056;2023-01-13T08:41:27;3.20;;;1.30;;
45232;SDS011;30969;51.052;17.056;2023-01-13T08:46:48;2.03;;;1.10;;
45232;SDS011;30969;51.052;17.056;2023-01-13T08:51:52;3.35;;;1.30;;
45232;SDS011;30969;51.052;17.056;2023-01-13T08:56:57;3.30;;;1.40;;
45232;SDS011;30969;51.052;17.056;2023-01-13T09:02:00;5.53;;;1.48;;
45232;SDS011;30969;51.052;17.056;2023-01-13T09:07:05;2.60;;;0.93;;
45232;SDS011;30969;51.052;17.056;2023-01-13T09:12:11;4.35;;;1.40;;
45232;SDS011;30969;51.052;17.056;2023-01-13T09:17:32;2.25;;;1.23;;
45232;SDS011;30969;51.052;17.056;2023-01-13T09:22:36;2.13;;;1.05;;
45232;SDS011;30969;51.052;17.056;2023-01-13T09:27:42;2.95;;;1.30;;
45232;SDS011;30969;51.052;17.056;2023-01-13T09:32:46;4.18;;;1.42;;
45232;SDS011;30969;51.052;17.056;2023-01-13T09:37:49;2.92;;;1.30;;
45232;SDS011;30969;51.052;17.056;2023-01-13T09:42:56;2.60;;;1.20;;
45232;SDS011;30969;51.052;17.056;2023-01-13T09:48:22;2.25;;;1.10;;
45232;SDS011;30969;51.052;17.056;2023-01-13T09:53:31;3.65;;;1.13;;
45232;SDS011;30969;51.052;17.056;2023-01-13T09:58:40;3.22;;;1.42;;
45232;SDS011;30969;51.052;17.056;2023-01-13T10:03:44;1.55;;;1.10;;
45232;SDS011;30969;51.052;17.056;2023-01-13T10:08:49;1.98;;;1.30;;
45232;SDS011;30969;51.052;17.056;2023-01-13T10:13:56;3.28;;;1.38;;
45232;SDS011;30969;51.052;17.056;2023-01-13T10:19:02;7.53;;;1.52;;
45232;SDS011;30969;51.052;17.056;2023-01-13T10:24:11;7.97;;;1.98;;
45232;SDS011;30969;51.052;17.056;2023-01-13T10:29:23;2.90;;;1.50;;
45232;SDS011;30969;51.052;17.056;2023-01-13T10:34:28;5.70;;;2.90;;
45232;SDS011;30969;51.052;17.056;2023-01-13T10:39:38;7.07;;;2.15;;
45232;SDS011;30969;51.052;17.056;2023-01-13T10:44:48;5.57;;;2.80;;
45232;SDS011;30969;51.052;17.056;2023-01-13T10:50:01;5.05;;;2.17;;
45232;SDS011;30969;51.052;17.056;2023-01-13T10:55:23;3.70;;;2.05;;
45232;SDS011;30969;51.052;17.056;2023-01-13T11:00:32;5.13;;;2.15;;
45232;SDS011;30969;51.052;17.056;2023-01-13T11:05:36;2.65;;;1.20;;
45232;SDS011;30969;51.052;17.056;2023-01-13T11:10:43;3.75;;;1.30;;
45232;SDS011;30969;51.052;17.056;2023-01-13T11:15:51;3.08;;;1.65;;
45232;SDS011;30969;51.052;17.056;2023-01-13T11:20:57;2.88;;;1.20;;
45232;SDS011;30969;51.052;17.056;2023-01-13T11:26:03;4.95;;;1.50;;
45232;SDS011;30969;51.052;17.056;2023-01-13T11:31:15;2.65;;;1.45;;
45232;SDS011;30969;51.052;17.056;2023-01-13T11:36:23;3.20;;;1.35;;
45232;SDS011;30969;51.052;17.056;2023-01-13T11:41:34;2.38;;;1.23;;
45232;SDS011;30969;51.052;17.056;2023-01-13T11:46:47;5.65;;;1.60;;
45232;SDS011;30969;51.052;17.056;2023-01-13T11:51:53;1.63;;;1.25;;
45232;SDS011;30969;51.052;17.056;2023-01-13T12:02:46;3.83;;;1.60;;
45232;SDS011;30969;51.052;17.056;2023-01-13T12:07:58;3.22;;;1.60;;
45232;SDS011;30969;51.052;17.056;2023-01-13T12:13:14;3.95;;;1.45;;
45232;SDS011;30969;51.052;17.056;2023-01-13T12:24:04;2.95;;;1.33;;
45232;SDS011;30969;51.052;17.056;2023-01-13T12:29:15;2.88;;;1.13;;
45232;SDS011;30969;51.052;17.056;2023-01-13T12:34:29;3.83;;;1.42;;
45232;SDS011;30969;51.052;17.056;2023-01-13T12:39:40;3.10;;;1.33;;
45232;SDS011;30969;51.052;17.056;2023-01-13T12:50:36;5.00;;;1.48;;
45232;SDS011;30969;51.052;17.056;2023-01-13T12:55:43;3.83;;;1.20;;
45232;SDS011;30969;51.052;17.056;2023-01-13T13:00:57;2.92;;;1.10;;
45232;SDS011;30969;51.052;17.056;2023-01-13T13:06:04;4.30;;;1.48;;
45232;SDS011;30969;51.052;17.056;2023-01-13T13:16:45;2.80;;;1.42;;
45232;SDS011;30969;51.052;17.056;2023-01-13T13:27:23;4.32;;;1.80;;
45232;SDS011;30969;51.052;17.056;2023-01-13T13:32:34;3.25;;;1.83;;
45232;SDS011;30969;51.052;17.056;2023-01-13T13:38:05;4.28;;;2.25;;
45232;SDS011;30969;51.052;17.056;2023-01-13T13:43:37;3.47;;;1.83;;
45232;SDS011;30969;51.052;17.056;2023-01-13T13:49:00;4.93;;;2.10;;
45232;SDS011;30969;51.052;17.056;2023-01-13T13:54:05;3.30;;;1.60;;
45232;SDS011;30969;51.052;17.056;2023-01-13T13:59:13;4.82;;;2.45;;
45232;SDS011;30969;51.052;17.056;2023-01-13T14:04:20;5.10;;;2.58;;
45232;SDS011;30969;51.052;17.056;2023-01-13T14:09:28;4.15;;;2.30;;
45232;SDS011;30969;51.052;17.056;2023-01-13T14:14:42;2.58;;;1.60;;
45232;SDS011;30969;51.052;17.056;2023-01-13T14:19:49;3.35;;;2.10;;
45232;SDS011;30969;51.052;17.056;2023-01-13T14:24:56;6.30;;;2.88;;
45232;SDS011;30969;51.052;17.056;2023-01-13T14:30:01;4.90;;;2.78;;
45232;SDS011;30969;51.052;17.056;2023-01-13T14:35:06;4.97;;;2.70;;
45232;SDS011;30969;51.052;17.056;2023-01-13T14:45:55;11.35;;;5.18;;
45232;SDS011;30969;51.052;17.056;2023-01-13T14:51:01;5.22;;;2.50;;
45232;SDS011;30969;51.052;17.056;2023-01-13T15:01:40;5.82;;;2.40;;
45232;SDS011;30969;51.052;17.056;2023-01-13T15:06:45;3.30;;;2.35;;
45232;SDS011;30969;51.052;17.056;2023-01-13T15:11:49;3.20;;;2.28;;
45232;SDS011;30969;51.052;17.056;2023-01-13T15:16:56;6.68;;;2.80;;
45232;SDS011;30969;51.052;17.056;2023-01-13T15:22:00;6.97;;;3.20;;
45232;SDS011;30969;51.052;17.056;2023-01-13T15:27:18;3.80;;;3.00;;
45232;SDS011;30969;51.052;17.056;2023-01-13T15:32:28;7.38;;;2.97;;
45232;SDS011;30969;51.052;17.056;2023-01-13T15:37:31;6.03;;;3.60;;
45232;SDS011;30969;51.052;17.056;2023-01-13T15:42:35;6.13;;;3.35;;
45232;SDS011;30969;51.052;17.056;2023-01-13T15:47:57;9.88;;;4.47;;
45232;SDS011;30969;51.052;17.056;2023-01-13T15:53:02;7.93;;;3.85;;
45232;SDS011;30969;51.052;17.056;2023-01-13T15:58:06;6.57;;;4.63;;
45232;SDS011;30969;51.052;17.056;2023-01-13T16:03:14;7.57;;;4.22;;
45232;SDS011;30969;51.052;17.056;2023-01-13T16:08:19;8.65;;;5.40;;
45232;SDS011;30969;51.052;17.056;2023-01-13T16:13:24;8.57;;;4.90;;
45232;SDS011;30969;51.052;17.056;2023-01-13T16:18:29;9.63;;;4.72;;
45232;SDS011;30969;51.052;17.056;2023-01-13T16:23:33;8.52;;;5.85;;
45232;SDS011;30969;51.052;17.056;2023-01-13T16:28:37;9.23;;;6.03;;
45232;SDS011;30969;51.052;17.056;2023-01-13T16:33:42;16.27;;;8.88;;
45232;SDS011;30969;51.052;17.056;2023-01-13T16:38:46;20.20;;;10.00;;
45232;SDS011;30969;51.052;17.056;2023-01-13T16:43:50;29.17;;;16.17;;
45232;SDS011;30969;51.052;17.056;2023-01-13T16:48:56;15.27;;;8.48;;
45232;SDS011;30969;51.052;17.056;2023-01-13T16:54:03;14.60;;;9.07;;
45232;SDS011;30969;51.052;17.056;2023-01-13T16:59:08;13.57;;;9.00;;
45232;SDS011;30969;51.052;17.056;2023-01-13T17:04:16;18.02;;;10.07;;
45232;SDS011;30969;51.052;17.056;2023-01-13T17:09:21;15.55;;;11.15;;
45232;SDS011;30969;51.052;17.056;2023-01-13T17:14:27;15.48;;;10.32;;
45232;SDS011;30969;51.052;17.056;2023-01-13T17:19:33;14.25;;;8.70;;
45232;SDS011;30969;51.052;17.056;2023-01-13T17:24:37;12.95;;;7.63;;
45232;SDS011;30969;51.052;17.056;2023-01-13T17:29:40;14.23;;;7.88;;
45232;SDS011;30969;51.052;17.056;2023-01-13T17:34:46;12.10;;;6.65;;
45232;SDS011;30969;51.052;17.056;2023-01-13T17:39:49;11.48;;;6.65;;
45232;SDS011;30969;51.052;17.056;2023-01-13T17:44:57;9.85;;;5.80;;
45232;SDS011;30969;51.052;17.056;2023-01-13T17:50:11;10.23;;;4.85;;
45232;SDS011;30969;51.052;17.056;2023-01-13T17:55:14;8.15;;;4.80;;
45232;SDS011;30969;51.052;17.056;2023-01-13T18:00:20;9.07;;;5.45;;
45232;SDS011;30969;51.052;17.056;2023-01-13T18:05:25;8.93;;;4.95;;
45232;SDS011;30969;51.052;17.056;2023-01-13T18:10:29;19.73;;;9.00;;
45232;SDS011;30969;51.052;17.056;2023-01-13T18:15:34;15.30;;;8.07;;
45232;SDS011;30969;51.052;17.056;2023-01-13T18:20:39;16.02;;;8.40;;
45232;SDS011;30969;51.052;17.056;2023-01-13T18:26:10;14.73;;;8.15;;
45232;SDS011;30969;51.052;17.056;2023-01-13T18:31:35;14.18;;;8.55;;
45232;SDS011;30969;51.052;17.056;2023-01-13T18:36:40;20.85;;;9.75;;
45232;SDS011;30969;51.052;17.056;2023-01-13T18:41:43;18.60;;;10.35;;
45232;SDS011;30969;51.052;17.056;2023-01-13T18:47:04;13.15;;;7.20;;
45232;SDS011;30969;51.052;17.056;2023-01-13T18:52:09;12.00;;;6.63;;
45232;SDS011;30969;51.052;17.056;2023-01-13T18:57:13;16.92;;;9.35;;
45232;SDS011;30969;51.052;17.056;2023-01-13T19:02:18;16.95;;;9.50;;
45232;SDS011;30969;51.052;17.056;2023-01-13T19:07:24;11.77;;;7.57;;
45232;SDS011;30969;51.052;17.056;2023-01-13T19:12:30;13.13;;;7.75;;
45232;SDS011;30969;51.052;17.056;2023-01-13T19:17:35;16.00;;;8.43;;
45232;SDS011;30969;51.052;17.056;2023-01-13T19:22:43;14.15;;;8.23;;
45232;SDS011;30969;51.052;17.056;2023-01-13T19:27:54;16.53;;;8.43;;
45232;SDS011;30969;51.052;17.056;2023-01-13T19:32:57;14.68;;;7.88;;
45232;SDS011;30969;51.052;17.056;2023-01-13T19:38:02;16.05;;;9.07;;
45232;SDS011;30969;51.052;17.056;2023-01-13T19:43:07;14.35;;;8.10;;
45232;SDS011;30969;51.052;17.056;2023-01-13T19:48:29;15.67;;;9.43;;
45232;SDS011;30969;51.052;17.056;2023-01-13T19:53:34;13.38;;;8.35;;
45232;SDS011;30969;51.052;17.056;2023-01-13T19:58:38;14.88;;;8.23;;
45232;SDS011;30969;51.052;17.056;2023-01-13T20:03:42;17.65;;;9.07;;
45232;SDS011;30969;51.052;17.056;2023-01-13T20:08:48;18.20;;;9.32;;
45232;SDS011;30969;51.052;17.056;2023-01-13T20:13:51;14.52;;;7.90;;
45232;SDS011;30969;51.052;17.056;2023-01-13T20:18:55;17.33;;;8.23;;
45232;SDS011;30969;51.052;17.056;2023-01-13T20:24:00;11.57;;;6.25;;
45232;SDS011;30969;51.052;17.056;2023-01-13T20:29:04;10.70;;;5.35;;
45232;SDS011;30969;51.052;17.056;2023-01-13T20:34:08;8.38;;;5.00;;
45232;SDS011;30969;51.052;17.056;2023-01-13T20:39:13;9.63;;;4.43;;
45232;SDS011;30969;51.052;17.056;2023-01-13T20:44:18;8.80;;;4.80;;
45232;SDS011;30969;51.052;17.056;2023-01-13T20:49:22;8.98;;;3.80;;
45232;SDS011;30969;51.052;17.056;2023-01-13T20:54:28;8.88;;;4.28;;
45232;SDS011;30969;51.052;17.056;2023-01-13T20:59:31;12.82;;;5.95;;
45232;SDS011;30969;51.052;17.056;2023-01-13T21:04:35;10.43;;;4.88;;
45232;SDS011;30969;51.052;17.056;2023-01-13T21:09:40;11.88;;;6.25;;
45232;SDS011;30969;51.052;17.056;2023-01-13T21:14:44;9.35;;;4.15;;
45232;SDS011;30969;51.052;17.056;2023-01-13T21:20:06;7.88;;;3.70;;
45232;SDS011;30969;51.052;17.056;2023-01-13T21:25:13;8.07;;;3.78;;
45232;SDS011;30969;51.052;17.056;2023-01-13T21:30:17;6.22;;;3.58;;
45232;SDS011;30969;51.052;17.056;2023-01-13T21:35:21;9.23;;;3.83;;
45232;SDS011;30969;51.052;17.056;2023-01-13T21:40:26;6.35;;;3.35;;
45232;SDS011;30969;51.052;17.056;2023-01-13T21:45:30;9.60;;;3.60;;
45232;SDS011;30969;51.052;17.056;2023-01-13T21:50:51;6.40;;;3.30;;
45232;SDS011;30969;51.052;17.056;2023-01-13T21:55:56;6.20;;;3.58;;
45232;SDS011;30969;51.052;17.056;2023-01-13T22:01:00;6.65;;;2.92;;
45232;SDS011;30969;51.052;17.056;2023-01-13T22:06:04;5.53;;;2.63;;
45232;SDS011;30969;51.052;17.056;2023-01-13T22:11:10;7.00;;;2.92;;
45232;SDS011;30969;51.052;17.056;2023-01-13T22:16:13;6.53;;;3.20;;
45232;SDS011;30969;51.052;17.056;2023-01-13T22:21:17;5.07;;;2.50;;
45232;SDS011;30969;51.052;17.056;2023-01-13T22:26:22;5.80;;;2.90;;
45232;SDS011;30969;51.052;17.056;2023-01-13T22:31:26;4.10;;;2.40;;
45232;SDS011;30969;51.052;17.056;2023-01-13T22:36:29;6.85;;;2.72;;
45232;SDS011;30969;51.052;17.056;2023-01-13T22:41:34;8.38;;;2.97;;
45232;SDS011;30969;51.052;17.056;2023-01-13T22:46:38;8.32;;;2.78;;
45232;SDS011;30969;51.052;17.056;2023-01-13T22:51:41;4.70;;;2.20;;
45232;SDS011;30969;51.052;17.056;2023-01-13T22:56:47;7.80;;;2.40;;
45232;SDS011;30969;51.052;17.056;2023-01-13T23:01:51;8.38;;;3.13;;
45232;SDS011;30969;51.052;17.056;2023-01-13T23:06:54;9.95;;;2.67;;
45232;SDS011;30969;51.052;17.056;2023-01-13T23:11:59;6.07;;;2.95;;
45232;SDS011;30969;51.052;17.056;2023-01-13T23:17:02;6.93;;;3.05;;
45232;SDS011;30969;51.052;17.056;2023-01-13T23:22:07;3.83;;;2.22;;
45232;SDS011;30969;51.052;17.056;2023-01-13T23:27:12;6.32;;;1.92;;
45232;SDS011;30969;51.052;17.056;2023-01-13T23:32:15;6.55;;;2.83;;
45232;SDS011;30969;51.052;17.056;2023-01-13T23:37:19;5.63;;;2.00;;
45232;SDS011;30969;51.052;17.056;2023-01-13T23:42:24;5.20;;;2.40;;
45232;SDS011;30969;51.052;17.056;2023-01-13T23:47:28;4.97;;;1.95;;
45232;SDS011;30969;51.052;17.056;2023-01-13T23:52:31;5.03;;;2.10;;
45232;SDS011;30969;51.052;17.056;2023-01-13T23:57:36;5.15;;;2.00;;
